Time;durP1;ratioP1;P1;durP2;ratioP2;P2;SDS_P1;SDS_P2;PMS_P1;PMS_P2;Temp;Humidity;BMP_temperature;BMP_pressure;BME280_temperature;BME280_humidity;BME280_pressure;Samples;Min_cycle;Max_cycle;Signal;HPM_P1;HPM_P2
2023/01/16 00:00:09;;;;;;;8.68;2.05;;;5.30;1.00;;;;;;5000970;28;20243;-82
2023/01/16 00:02:38;;;;;;;7.45;1.17;;;5.30;1.00;;;;;;5004564;28;20266;-82
2023/01/16 00:05:15;;;;;;;7.40;1.60;;;5.40;1.00;;;;;;5011628;28;20330;-79
2023/01/16 00:07:43;;;;;;;5.32;1.05;;;5.50;1.00;;;;;;5011437;28;20325;-78
2023/01/16 00:10:11;;;;;;;6.28;1.27;;;5.50;1.00;;;;;;5013003;28;20670;-80
2023/01/16 00:12:41;;;;;;;7.75;1.70;;;5.60;1.00;;;;;;5016375;28;20610;-79
2023/01/16 00:15:19;;;;;;;5.43;1.00;;;5.70;1.00;;;;;;4993962;28;20269;-79
2023/01/16 00:17:52;;;;;;;5.07;1.10;;;5.70;1.00;;;;;;5011103;28;20238;-79
2023/01/16 00:20:28;;;;;;;5.75;1.20;;;5.70;1.00;;;;;;5015250;28;20243;-79
2023/01/16 00:22:55;;;;;;;8.85;1.45;;;5.70;1.00;;;;;;4996191;28;20258;-79
2023/01/16 00:25:24;;;;;;;5.85;1.50;;;5.70;1.00;;;;;;5016360;28;20369;-78
2023/01/16 00:27:51;;;;;;;5.70;1.38;;;5.80;1.00;;;;;;5009499;28;20247;-79
2023/01/16 00:30:19;;;;;;;6.45;1.48;;;5.80;1.00;;;;;;5012944;28;20259;-79
2023/01/16 00:32:49;;;;;;;6.97;1.35;;;5.80;1.00;;;;;;5011062;28;21483;-80
2023/01/16 00:35:18;;;;;;;5.65;1.05;;;5.80;1.00;;;;;;5011329;28;20252;-82
2023/01/16 00:37:48;;;;;;;5.85;1.20;;;5.80;1.00;;;;;;5006157;28;20987;-79
2023/01/16 00:40:16;;;;;;;6.15;1.27;;;5.80;1.00;;;;;;5015302;28;20235;-82
2023/01/16 00:42:43;;;;;;;10.02;2.28;;;5.80;1.00;;;;;;4995453;28;20243;-80
2023/01/16 00:45:11;;;;;;;5.90;1.10;;;5.80;1.00;;;;;;5014569;28;20337;-80
2023/01/16 00:47:39;;;;;;;6.90;1.55;;;5.80;1.00;;;;;;4999007;28;20919;-79
2023/01/16 00:50:09;;;;;;;5.32;1.00;;;5.70;1.00;;;;;;5003623;28;20462;-82
2023/01/16 00:52:35;;;;;;;7.05;1.27;;;5.70;1.00;;;;;;5002227;28;21096;-79
2023/01/16 00:55:04;;;;;;;5.88;1.45;;;5.70;1.00;;;;;;5012376;28;20238;-79
2023/01/16 00:57:32;;;;;;;5.63;1.20;;;5.70;1.00;;;;;;5011816;28;20293;-83
2023/01/16 00:59:59;;;;;;;5.97;1.40;;;5.70;1.00;;;;;;5011476;28;20305;-79
2023/01/16 01:02:31;;;;;;;21.33;18.77;;;5.70;1.00;;;;;;5001123;28;20238;-80
2023/01/16 01:04:58;;;;;;;5.20;1.25;;;5.70;1.00;;;;;;4992905;28;20223;-80
2023/01/16 01:07:25;;;;;;;5.65;1.35;;;5.70;1.00;;;;;;5007088;28;20257;-80
2023/01/16 01:09:52;;;;;;;7.00;1.30;;;5.60;1.00;;;;;;5010898;28;20299;-80
2023/01/16 01:12:22;;;;;;;5.72;1.20;;;5.50;1.00;;;;;;5013974;28;20230;-84
2023/01/16 01:14:49;;;;;;;5.38;1.20;;;5.50;1.00;;;;;;5004558;28;20234;-80
2023/01/16 01:17:23;;;;;;;5.70;1.65;;;5.30;1.00;;;;;;5015909;28;20773;-81
2023/01/16 01:19:51;;;;;;;6.82;1.48;;;5.30;1.00;;;;;;5004268;28;20239;-80
2023/01/16 01:22:23;;;;;;;7.07;1.75;;;5.20;1.00;;;;;;5004152;28;20294;-83
2023/01/16 01:24:53;;;;;;;6.18;1.17;;;5.10;1.00;;;;;;4994321;28;20243;-79
2023/01/16 01:27:26;;;;;;;6.50;1.15;;;5.00;1.00;;;;;;4990567;28;20231;-82
2023/01/16 01:29:53;;;;;;;5.47;1.10;;;5.00;1.00;;;;;;5010484;28;21083;-80
2023/01/16 01:32:21;;;;;;;7.07;1.50;;;4.90;1.00;;;;;;5007537;28;20261;-79
2023/01/16 01:34:48;;;;;;;5.82;1.13;;;4.90;1.00;;;;;;5017792;28;20337;-82
2023/01/16 01:37:15;;;;;;;5.20;1.25;;;4.80;1.00;;;;;;5016310;28;20249;-81
2023/01/16 01:39:43;;;;;;;4.95;1.40;;;4.80;1.00;;;;;;5014053;28;21704;-79
2023/01/16 01:45:21;;;;;;;5.35;1.20;;;4.70;1.00;;;;;;4959044;28;21190;-79
2023/01/16 01:47:57;;;;;;;6.45;1.13;;;4.70;1.00;;;;;;4957172;28;21132;-79
2023/01/16 01:50:34;;;;;;;5.43;0.98;;;4.70;1.00;;;;;;4985503;28;20699;-82
2023/01/16 01:53:05;;;;;;;6.80;1.13;;;4.70;1.00;;;;;;5017651;28;20279;-82
2023/01/16 01:55:33;;;;;;;6.30;1.70;;;4.70;1.00;;;;;;5008986;28;20934;-80
2023/01/16 01:58:02;;;;;;;6.32;1.17;;;4.70;1.00;;;;;;5012641;28;20246;-83
2023/01/16 02:00:33;;;;;;;5.90;1.13;;;4.60;1.00;;;;;;5012275;28;20239;-82
2023/01/16 02:03:10;;;;;;;8.55;2.08;;;4.50;1.00;;;;;;5011133;28;20297;-83
2023/01/16 02:05:53;;;;;;;5.25;1.10;;;4.50;1.00;;;;;;4976389;28;20239;-83
2023/01/16 02:11:41;;;;;;;7.93;1.15;;;4.60;1.00;;;;;;4987131;28;20986;-83
2023/01/16 02:14:24;;;;;;;6.45;1.27;;;4.70;1.00;;;;;;4994314;28;20253;-83
2023/01/16 02:20:03;;;;;;;6.18;1.40;;;4.90;1.00;;;;;;4992021;28;20242;-83
2023/01/16 02:23:14;;;;;;;4.90;0.95;;;4.90;1.00;;;;;;4995621;28;20245;-81
2023/01/16 02:26:10;;;;;;;5.13;1.05;;;5.00;1.00;;;;;;4997454;28;20241;-83
2023/01/16 02:29:12;;;;;;;5.35;1.05;;;5.00;1.00;;;;;;4951683;28;20238;-83
2023/01/16 02:32:02;;;;;;;5.35;1.20;;;5.00;1.00;;;;;;4971469;28;20245;-84
2023/01/16 02:35:03;;;;;;;7.38;1.17;;;4.90;1.00;;;;;;4957159;28;21027;-83
2023/01/16 02:41:01;;;;;;;7.10;1.20;;;5.00;1.00;;;;;;4979165;28;20240;-82
2023/01/16 02:44:15;;;;;;;;;;;;;;;;;;;;;
2023/01/16 02:47:03;;;;;;;6.05;1.30;;;4.90;1.00;;;;;;4906822;28;51670;-82
2023/01/16 02:49:44;;;;;;;5.88;1.25;;;4.90;1.00;;;;;;4998940;28;21078;-82
2023/01/16 02:52:19;;;;;;;5.97;1.15;;;4.80;1.00;;;;;;5003364;28;20231;-83
2023/01/16 02:54:53;;;;;;;7.22;1.02;;;4.80;1.00;;;;;;5017435;28;20244;-82
2023/01/16 02:57:22;;;;;;;5.90;1.02;;;4.80;1.00;;;;;;5016792;28;20939;-82
2023/01/16 02:59:51;;;;;;;6.13;1.23;;;4.80;1.00;;;;;;5016343;28;20298;-84
2023/01/16 03:02:18;;;;;;;6.47;1.48;;;4.70;1.00;;;;;;5016878;28;20987;-83
2023/01/16 03:04:49;;;;;;;6.65;1.10;;;4.70;1.00;;;;;;5020541;28;20245;-83
2023/01/16 03:07:38;;;;;;;4.82;1.00;;;4.70;1.00;;;;;;4984512;28;20711;-83
2023/01/16 03:10:22;;;;;;;4.88;0.80;;;4.70;1.00;;;;;;5010122;28;20314;-83
2023/01/16 03:13:01;;;;;;;6.30;0.93;;;4.80;1.00;;;;;;5018992;28;20235;-83
2023/01/16 03:15:36;;;;;;;5.90;1.10;;;4.70;1.00;;;;;;4999116;28;21068;-82
2023/01/16 03:18:22;;;;;;;5.60;1.10;;;4.80;1.00;;;;;;5000198;28;20973;-82
2023/01/16 03:21:04;;;;;;;4.68;0.98;;;4.80;1.00;;;;;;4979741;28;20245;-82
2023/01/16 03:23:50;;;;;;;6.43;1.30;;;4.80;1.00;;;;;;4998951;28;20238;-81
2023/01/16 03:29:33;;;;;;;7.35;1.20;;;4.80;1.00;;;;;;5002013;28;20254;-83
2023/01/16 03:32:21;;;;;;;6.28;1.55;;;4.80;1.00;;;;;;4991972;28;20242;-83
2023/01/16 03:35:02;;;;;;;7.57;1.92;;;4.80;1.00;;;;;;4992116;28;20238;-82
2023/01/16 03:37:42;;;;;;;6.28;1.30;;;4.90;1.00;;;;;;4997126;28;20261;-84
2023/01/16 03:43:31;;;;;;;5.80;1.20;;;4.80;1.00;;;;;;5008700;28;20322;-83
2023/01/16 03:46:13;;;;;;;5.43;1.20;;;4.70;1.00;;;;;;4998713;28;20242;-84
2023/01/16 03:49:12;;;;;;;5.70;1.00;;;4.60;1.00;;;;;;4997276;28;20227;-83
2023/01/16 03:52:01;;;;;;;6.45;1.30;;;4.50;1.00;;;;;;4971730;28;20248;-83
2023/01/16 03:55:04;;;;;;;6.20;1.25;;;4.50;1.00;;;;;;4996425;28;20334;-82
2023/01/16 03:57:43;;;;;;;7.00;1.42;;;4.50;1.00;;;;;;4997528;28;20242;-82
2023/01/16 04:00:14;;;;;;;5.20;1.27;;;4.50;1.00;;;;;;4998666;28;20242;-83
2023/01/16 04:02:52;;;;;;;6.55;1.20;;;4.50;1.00;;;;;;4978857;28;20231;-82
2023/01/16 04:05:43;;;;;;;5.40;1.20;;;4.50;1.00;;;;;;5007508;28;20277;-84
2023/01/16 04:08:32;;;;;;;6.22;1.77;;;4.50;1.00;;;;;;4999220;28;20238;-83
2023/01/16 04:11:04;;;;;;;5.47;1.20;;;4.60;1.00;;;;;;4993483;28;21071;-83
2023/01/16 04:13:44;;;;;;;6.97;2.15;;;4.60;1.00;;;;;;4993345;28;20246;-84
2023/01/16 04:16:32;;;;;;;6.13;1.42;;;4.60;1.00;;;;;;5008663;28;21137;-82
2023/01/16 04:19:04;;;;;;;5.30;1.20;;;4.50;1.00;;;;;;4997498;28;20254;-83
2023/01/16 04:21:34;;;;;;;5.80;1.40;;;4.40;1.00;;;;;;4998022;28;20230;-82
2023/01/16 04:24:03;;;;;;;7.78;1.48;;;4.40;1.00;;;;;;4983467;28;20296;-83
2023/01/16 04:29:24;;;;;;;5.90;1.35;;;4.20;1.00;;;;;;4958814;28;20241;-83
2023/01/16 04:32:04;;;;;;;5.88;1.08;;;4.10;1.00;;;;;;4990125;28;20243;-83
2023/01/16 04:34:34;;;;;;;5.53;1.60;;;4.00;1.00;;;;;;4987822;28;20306;-83
2023/01/16 04:37:03;;;;;;;5.18;1.35;;;3.90;1.00;;;;;;4995924;28;20249;-85
2023/01/16 04:39:34;;;;;;;9.80;3.00;;;3.90;1.00;;;;;;5007242;28;20247;-83
2023/01/16 04:42:15;;;;;;;;;;;;;;;;;;;;;
2023/01/16 04:44:42;;;;;;;6.55;1.70;;;3.70;1.00;;;;;;4985482;28;41543;-82
2023/01/16 04:47:10;;;;;;;5.75;1.60;;;3.70;1.00;;;;;;4996121;28;20305;-83
2023/01/16 04:52:52;;;;;;;5.93;1.70;;;3.80;1.00;;;;;;4982594;28;20327;-82
2023/01/16 04:55:34;;;;;;;4.90;1.30;;;3.80;1.00;;;;;;4993626;28;20274;-84
2023/01/16 04:58:05;;;;;;;5.90;1.52;;;3.70;1.00;;;;;;4995096;28;20313;-83
2023/01/16 05:00:44;;;;;;;6.53;1.65;;;3.70;1.00;;;;;;4993258;28;20999;-83
2023/01/16 05:03:21;;;;;;;7.15;2.10;;;3.70;1.00;;;;;;4982993;28;20294;-84
2023/01/16 05:06:15;;;;;;;7.28;1.95;;;3.60;1.00;;;;;;4983728;28;20241;-83
2023/01/16 05:09:02;;;;;;;;;;;;;;;;;;;;;
2023/01/16 05:11:29;;;;;;;6.35;1.55;;;3.60;1.00;;;;;;4974884;28;41145;-82
2023/01/16 05:14:25;;;;;;;;;;;;;;;;;;;;;
2023/01/16 05:16:53;;;;;;;7.75;1.40;;;3.50;1.00;;;;;;4986357;28;40867;-83
2023/01/16 05:19:25;;;;;;;5.72;1.58;;;3.50;1.00;;;;;;4991863;28;20318;-82
2023/01/16 05:21:55;;;;;;;10.05;1.90;;;3.50;1.00;;;;;;4986051;28;20240;-83
2023/01/16 05:24:24;;;;;;;6.38;2.10;;;3.50;1.00;;;;;;4993572;28;20258;-83
2023/01/16 05:26:54;;;;;;;6.15;1.67;;;3.60;1.00;;;;;;4984768;28;20249;-84
2023/01/16 05:29:23;;;;;;;5.43;1.60;;;3.60;1.00;;;;;;4987780;28;20246;-83
2023/01/16 05:31:53;;;;;;;6.15;1.50;;;3.70;1.00;;;;;;4976542;28;20322;-81
2023/01/16 05:35:02;;;;;;;7.80;1.85;;;3.70;1.00;;;;;;4998440;28;21759;-84
2023/01/16 05:37:34;;;;;;;6.05;1.60;;;3.80;1.00;;;;;;4900449;28;20245;-84
2023/01/16 05:40:01;;;;;;;5.63;1.65;;;3.80;1.00;;;;;;5005827;28;22510;-82
2023/01/16 05:42:30;;;;;;;8.40;1.65;;;3.80;1.00;;;;;;5010307;28;20991;-79
2023/01/16 05:45:12;;;;;;;6.75;1.60;;;3.80;1.00;;;;;;4985479;28;20238;-79
2023/01/16 05:47:54;;;;;;;6.18;1.63;;;3.80;1.00;;;;;;4970943;28;20403;-80
2023/01/16 05:50:35;;;;;;;6.65;1.52;;;3.80;1.00;;;;;;4981283;28;20235;-80
2023/01/16 05:53:04;;;;;;;7.30;2.15;;;3.80;1.00;;;;;;4995182;28;20243;-80
2023/01/16 05:55:44;;;;;;;5.65;1.48;;;3.80;1.00;;;;;;4975564;28;20282;-81
2023/01/16 05:58:54;;;;;;;7.07;2.22;;;3.80;1.00;;;;;;4992544;28;20234;-80
2023/01/16 06:01:24;;;;;;;5.60;1.60;;;3.80;1.00;;;;;;5013836;28;20243;-81
2023/01/16 06:03:52;;;;;;;7.63;1.77;;;3.80;1.00;;;;;;4987382;28;20239;-81
2023/01/16 06:06:19;;;;;;;9.05;1.75;;;3.80;1.00;;;;;;4994743;28;20242;-80
2023/01/16 06:08:53;;;;;;;5.70;2.15;;;3.80;1.00;;;;;;5010730;28;20235;-80
2023/01/16 06:11:22;;;;;;;5.50;1.63;;;3.90;1.00;;;;;;5013706;28;20239;-81
2023/01/16 06:13:49;;;;;;;7.00;1.50;;;3.80;1.00;;;;;;5013307;28;20242;-81
2023/01/16 06:16:22;;;;;;;7.05;1.70;;;3.80;1.00;;;;;;5014060;28;20245;-82
2023/01/16 06:19:10;;;;;;;6.45;1.50;;;3.90;1.00;;;;;;4988029;28;20863;-80
2023/01/16 06:21:39;;;;;;;6.50;1.70;;;3.80;1.00;;;;;;5005629;28;20758;-82
2023/01/16 06:24:09;;;;;;;8.50;2.10;;;3.80;1.00;;;;;;5014010;28;20239;-83
2023/01/16 06:26:37;;;;;;;7.75;1.92;;;3.90;1.00;;;;;;5017588;28;20247;-79
2023/01/16 06:29:05;;;;;;;6.50;1.85;;;3.90;1.00;;;;;;5018697;28;20238;-81
2023/01/16 06:31:32;;;;;;;5.85;1.75;;;3.90;1.00;;;;;;5015482;28;20258;-80
2023/01/16 06:34:01;;;;;;;7.78;2.10;;;3.90;1.00;;;;;;5007936;28;20234;-79
2023/01/16 06:36:48;;;;;;;5.40;2.08;;;3.90;1.00;;;;;;5014122;28;20238;-81
2023/01/16 06:39:15;;;;;;;6.05;2.08;;;4.00;1.00;;;;;;5013882;28;21030;-80
2023/01/16 06:41:43;;;;;;;10.60;2.70;;;4.00;1.00;;;;;;5004585;28;20237;-79
2023/01/16 06:44:11;;;;;;;6.88;2.40;;;4.00;1.00;;;;;;5018968;28;22976;-81
2023/01/16 06:46:39;;;;;;;7.78;2.42;;;4.00;1.00;;;;;;5013894;28;20265;-79
2023/01/16 06:49:05;;;;;;;9.95;2.58;;;4.10;1.00;;;;;;5016364;28;20246;-81
2023/01/16 06:51:32;;;;;;;10.05;2.70;;;4.20;1.00;;;;;;5011145;28;20235;-81
2023/01/16 06:54:03;;;;;;;6.88;2.65;;;4.20;1.00;;;;;;5018741;28;20243;-79
2023/01/16 06:56:33;;;;;;;8.10;2.45;;;4.10;1.00;;;;;;5017224;28;20230;-80
2023/01/16 06:59:00;;;;;;;7.30;2.38;;;4.10;1.00;;;;;;5015565;28;20231;-82
2023/01/16 07:01:27;;;;;;;9.30;3.72;;;4.10;1.00;;;;;;5017267;28;20223;-83
2023/01/16 07:03:54;;;;;;;9.15;3.15;;;4.10;1.00;;;;;;5006022;28;20675;-82
2023/01/16 07:06:21;;;;;;;6.25;2.20;;;4.00;1.00;;;;;;4999570;28;21010;-79
2023/01/16 07:08:52;;;;;;;10.20;3.67;;;4.00;1.00;;;;;;5013595;28;20323;-80
2023/01/16 07:11:23;;;;;;;7.72;2.88;;;4.00;1.00;;;;;;5002703;28;20258;-79
2023/01/16 07:22:43;;;;;;;9.60;2.75;;;4.00;1.00;;;;;;4999944;28;20238;-82
2023/01/16 07:25:17;;;;;;;11.07;2.70;;;4.10;1.00;;;;;;4995546;28;20245;-83
2023/01/16 07:27:48;;;;;;;6.95;2.30;;;4.10;1.00;;;;;;5007139;28;20243;-80
2023/01/16 07:30:19;;;;;;;9.05;2.55;;;4.10;1.00;;;;;;5014550;28;20222;-80
2023/01/16 07:32:47;;;;;;;9.15;2.60;;;4.10;1.00;;;;;;5015814;28;20321;-80
2023/01/16 07:35:14;;;;;;;7.20;2.25;;;4.10;1.00;;;;;;5018209;28;20269;-82
2023/01/16 07:37:42;;;;;;;8.27;2.70;;;4.10;1.00;;;;;;5012555;28;20258;-83
2023/01/16 07:40:10;;;;;;;8.43;2.33;;;4.20;1.00;;;;;;5017630;28;20329;-82
2023/01/16 07:42:39;;;;;;;10.73;2.50;;;4.10;1.00;;;;;;5007272;28;20719;-83
2023/01/16 07:45:14;;;;;;;6.38;2.10;;;4.10;1.00;;;;;;5007256;28;21139;-81
2023/01/16 07:47:43;;;;;;;7.60;2.40;;;4.10;1.00;;;;;;4986897;28;20725;-81
2023/01/16 07:50:14;;;;;;;6.18;1.80;;;4.00;1.00;;;;;;5004077;28;20386;-80
2023/01/16 07:52:45;;;;;;;6.68;2.05;;;4.00;1.00;;;;;;4984820;28;20396;-82
2023/01/16 07:55:15;;;;;;;7.07;1.98;;;4.00;1.00;;;;;;4991072;28;20757;-80
2023/01/16 07:57:44;;;;;;;11.05;1.85;;;4.00;1.00;;;;;;4973285;28;20337;-82
2023/01/16 08:00:14;;;;;;;8.32;2.08;;;4.00;1.00;;;;;;5007643;28;20235;-80
2023/01/16 08:02:42;;;;;;;10.43;2.95;;;4.10;1.00;;;;;;5014036;28;20320;-82
2023/01/16 08:05:11;;;;;;;11.35;2.60;;;4.10;1.00;;;;;;5007453;28;20242;-82
2023/01/16 08:07:38;;;;;;;7.43;2.10;;;4.20;1.00;;;;;;5016680;28;20289;-81
2023/01/16 08:10:06;;;;;;;6.70;2.03;;;4.20;1.00;;;;;;5007044;28;20734;-81
2023/01/16 08:12:33;;;;;;;6.40;2.00;;;4.20;1.00;;;;;;5019413;28;20243;-80
2023/01/16 08:15:02;;;;;;;7.47;1.95;;;4.20;1.00;;;;;;5015150;28;20266;-81
2023/01/16 08:17:31;;;;;;;10.05;2.47;;;4.20;1.00;;;;;;5010624;28;21764;-80
2023/01/16 08:20:02;;;;;;;8.30;2.25;;;4.30;1.00;;;;;;5014700;28;20322;-79
2023/01/16 08:22:44;;;;;;;7.40;2.05;;;4.30;1.00;;;;;;5007439;28;20553;-80
2023/01/16 08:25:13;;;;;;;7.47;2.30;;;4.40;1.00;;;;;;5017429;28;20270;-81
2023/01/16 08:27:42;;;;;;;6.85;2.45;;;4.40;1.00;;;;;;5009390;28;20258;-81
2023/01/16 08:30:21;;;;;;;6.95;2.40;;;4.40;1.00;;;;;;5020208;28;20235;-81
2023/01/16 08:33:39;;;;;;;;;;;;;;;;;;;;;
2023/01/16 08:36:23;;;;;;;8.48;3.85;;;4.40;1.00;;;;;;4991417;28;50638;-81
2023/01/16 08:38:56;;;;;;;9.35;2.60;;;4.50;1.00;;;;;;4978846;28;20785;-81
2023/01/16 08:52:36;;;;;;;9.52;2.85;;;4.90;1.00;;;;;;5005592;28;20231;-83
2023/01/16 08:55:14;;;;;;;6.93;2.15;;;5.20;1.00;;;;;;5006175;28;20785;-82
2023/01/16 08:57:44;;;;;;;8.02;2.17;;;5.50;1.00;;;;;;5009677;28;20235;-81
2023/01/16 09:00:15;;;;;;;6.95;1.73;;;5.70;1.00;;;;;;4999043;28;20246;-81
2023/01/16 09:02:47;;;;;;;9.18;2.00;;;5.80;1.00;;;;;;4999018;28;20332;-80
2023/01/16 09:05:14;;;;;;;7.03;2.00;;;5.60;1.00;;;;;;4991715;28;20243;-83
2023/01/16 09:07:45;;;;;;;7.22;2.08;;;5.50;1.00;;;;;;4994642;28;20267;-80
2023/01/16 09:10:12;;;;;;;10.13;2.65;;;5.50;1.00;;;;;;4997806;28;20307;-80
2023/01/16 09:15:26;;;;;;;6.30;1.75;;;5.30;1.00;;;;;;4992454;28;20246;-80
2023/01/16 09:17:57;;;;;;;10.80;3.33;;;5.30;1.00;;;;;;4983695;28;20307;-79
2023/01/16 09:20:27;;;;;;;7.60;2.15;;;5.40;1.00;;;;;;4997134;28;20246;-81
2023/01/16 09:23:02;;;;;;;7.10;3.60;;;5.40;1.00;;;;;;4996594;28;20242;-80
2023/01/16 09:25:31;;;;;;;8.13;2.22;;;5.50;1.00;;;;;;4992903;28;20231;-80
2023/01/16 09:28:00;;;;;;;8.25;2.00;;;5.40;1.00;;;;;;4982938;28;21032;-81
2023/01/16 09:30:27;;;;;;;8.32;2.50;;;5.50;1.00;;;;;;5004192;28;20238;-80
2023/01/16 09:32:55;;;;;;;5.80;1.83;;;5.50;1.00;;;;;;4993958;28;20267;-80
2023/01/16 09:35:25;;;;;;;11.85;3.95;;;5.50;1.00;;;;;;4997202;28;20247;-81
2023/01/16 09:37:54;;;;;;;6.32;2.10;;;5.60;1.00;;;;;;4995107;28;20334;-83
2023/01/16 09:40:25;;;;;;;7.60;2.50;;;6.00;1.00;;;;;;4993721;28;20239;-82
2023/01/16 09:46:06;;;;;;;7.78;2.10;;;6.60;1.00;;;;;;4986056;28;20735;-81
2023/01/16 09:48:41;;;;;;;8.10;2.10;;;6.90;1.00;;;;;;4987799;28;20974;-82
2023/01/16 09:51:25;;;;;;;5.75;1.73;;;7.20;1.00;;;;;;4995763;28;20246;-81
2023/01/16 10:00:25;;;;;;;7.55;1.83;;;7.80;1.00;;;;;;4985504;28;20242;-81
2023/01/16 10:02:55;;;;;;;7.70;2.20;;;7.30;1.00;;;;;;4972429;28;20267;-83
2023/01/16 10:05:48;;;;;;;7.38;1.95;;;7.20;1.00;;;;;;4990352;28;20236;-79
2023/01/16 10:08:20;;;;;;;6.32;1.40;;;7.50;1.00;;;;;;5013513;28;20305;-81
2023/01/16 10:10:55;;;;;;;6.30;1.70;;;7.80;1.00;;;;;;5001220;28;20313;-82
2023/01/16 10:13:53;;;;;;;7.32;1.80;;;7.80;1.00;;;;;;5006699;28;20294;-81
2023/01/16 10:16:32;;;;;;;7.65;1.75;;;8.10;1.00;;;;;;5019682;28;20698;-80
2023/01/16 10:19:23;;;;;;;6.60;1.50;;;8.50;1.00;;;;;;4993368;28;20242;-81
2023/01/16 10:22:24;;;;;;;6.35;1.55;;;8.70;1.00;;;;;;4992724;28;20240;-81
2023/01/16 10:28:18;;;;;;;6.40;1.38;;;8.10;1.00;;;;;;4969249;28;20231;-81
2023/01/16 10:30:53;;;;;;;6.00;1.30;;;8.50;1.00;;;;;;4986283;28;20241;-80
2023/01/16 10:33:56;;;;;;;7.22;1.63;;;8.80;1.00;;;;;;5013130;28;20227;-81
2023/01/16 10:36:29;;;;;;;9.53;1.90;;;9.40;1.00;;;;;;5016908;28;20284;-82
2023/01/16 10:39:04;;;;;;;6.03;1.40;;;9.80;1.00;;;;;;5018566;28;20410;-81
2023/01/16 10:50:14;;;;;;;5.73;1.60;;;9.70;1.00;;;;;;5012638;28;20462;-82
2023/01/16 10:52:44;;;;;;;6.00;1.13;;;10.90;1.00;;;;;;5017790;28;21343;-81
2023/01/16 10:58:07;;;;;;;7.20;1.97;;;11.40;1.00;;;;;;4996719;28;21383;-82
2023/01/16 11:00:38;;;;;;;5.93;1.60;;;12.50;1.00;;;;;;5010018;28;20410;-82
2023/01/16 11:03:26;;;;;;;6.07;1.37;;;12.50;1.00;;;;;;5001338;28;21335;-81
2023/01/16 11:06:08;;;;;;;6.40;1.97;;;12.60;1.00;;;;;;4990168;28;20447;-82
2023/01/16 11:08:41;;;;;;;6.63;1.50;;;12.80;1.00;;;;;;5010431;28;20448;-82
2023/01/16 11:18:27;;;;;;;7.13;1.80;;;12.40;1.00;;;;;;4992479;28;20410;-80
2023/01/16 11:20:03;;;;;;;6.80;1.60;;;13.50;1.00;;;;;;5013528;28;20867;-81
2023/01/16 11:22:33;;;;;;;6.43;1.53;;;14.10;1.00;;;;;;5019068;28;20558;-82
2023/01/16 11:25:04;;;;;;;5.47;1.70;;;15.10;1.00;;;;;;5018543;28;20470;-83
2023/01/16 11:27:35;;;;;;;5.70;1.70;;;14.60;1.00;;;;;;5017565;28;20455;-82
2023/01/16 11:30:09;;;;;;;6.40;1.97;;;14.10;1.00;;;;;;5020753;28;20454;-83
2023/01/16 11:32:47;;;;;;;6.40;2.07;;;13.50;1.00;;;;;;5016893;28;21282;-80
2023/01/16 11:35:25;;;;;;;8.73;1.87;;;13.80;1.00;;;;;;5020438;28;20507;-81
2023/01/16 11:37:53;;;;;;;6.40;1.60;;;14.60;1.00;;;;;;5017684;28;20588;-80
2023/01/16 11:40:23;;;;;;;9.33;1.70;;;14.00;1.00;;;;;;5020036;28;20474;-82
2023/01/16 11:46:03;;;;;;;8.40;1.40;;;14.20;1.00;;;;;;4951649;28;20453;-82
2023/01/16 11:48:38;;;;;;;6.87;1.50;;;13.70;1.00;;;;;;5011701;28;20462;-79
2023/01/16 11:51:13;;;;;;;5.83;1.60;;;13.80;1.00;;;;;;5015926;28;20416;-82
2023/01/16 11:53:40;;;;;;;7.30;1.70;;;13.60;1.00;;;;;;5016791;28;20469;-80
2023/01/16 11:56:29;;;;;;;5.37;1.70;;;13.30;1.00;;;;;;5015457;28;20536;-84
2023/01/16 11:59:07;;;;;;;6.00;1.53;;;13.80;1.00;;;;;;5013696;28;20457;-80
2023/01/16 12:04:34;;;;;;;5.00;1.60;;;13.70;1.00;;;;;;5017490;28;20898;-81
2023/01/16 12:07:15;;;;;;;6.77;1.93;;;13.20;1.00;;;;;;5016005;28;20597;-82
2023/01/16 12:09:51;;;;;;;5.80;1.57;;;13.60;1.00;;;;;;5017767;28;21097;-82
2023/01/16 12:15:14;;;;;;;8.30;1.70;;;13.00;1.00;;;;;;5016372;28;20637;-84
2023/01/16 12:18:02;;;;;;;7.83;2.60;;;12.90;1.00;;;;;;5019207;28;20475;-81
2023/01/16 12:20:41;;;;;;;8.73;2.70;;;13.20;1.00;;;;;;5022239;28;20517;-81
2023/01/16 12:23:25;;;;;;;7.03;2.10;;;13.90;1.00;;;;;;5019023;28;21337;-80
2023/01/16 12:26:01;;;;;;;6.40;1.90;;;14.30;1.00;;;;;;5006019;28;20443;-82
2023/01/16 12:28:42;;;;;;;8.00;1.60;;;14.30;1.00;;;;;;5018333;28;21239;-82
2023/01/16 12:31:36;;;;;;;6.40;2.00;;;14.00;1.00;;;;;;5013252;28;20505;-81
2023/01/16 12:34:19;;;;;;;6.50;1.70;;;13.90;1.00;;;;;;5014257;28;20462;-83
2023/01/16 12:37:01;;;;;;;5.70;1.67;;;13.70;1.00;;;;;;5014071;28;20415;-82
2023/01/16 12:39:44;;;;;;;5.13;1.37;;;13.80;1.00;;;;;;4998471;28;20459;-82
2023/01/16 12:45:15;;;;;;;8.00;2.00;;;14.00;1.00;;;;;;5011569;28;20565;-85
2023/01/16 12:47:54;;;;;;;6.67;1.60;;;13.40;1.00;;;;;;5012149;28;20534;-85
2023/01/16 12:50:37;;;;;;;6.70;1.40;;;13.30;1.00;;;;;;5013704;28;20478;-84
2023/01/16 12:53:23;;;;;;;5.17;1.40;;;13.50;1.00;;;;;;5016802;28;20505;-84
2023/01/16 12:56:24;;;;;;;5.97;1.47;;;13.70;1.00;;;;;;4992646;28;20455;-83
2023/01/16 12:59:19;;;;;;;5.13;1.30;;;13.70;1.00;;;;;;4967618;28;20985;-82
2023/01/16 13:08:49;;;;;;;5.03;1.40;;;13.70;1.00;;;;;;4908993;28;20452;-81
2023/01/16 13:17:13;;;;;;;6.67;1.30;;;11.10;1.00;;;;;;4968539;28;20463;-80
2023/01/16 13:26:02;;;;;;;5.33;1.37;;;10.70;1.00;;;;;;4963040;28;20469;-82
2023/01/16 13:28:56;;;;;;;6.40;1.60;;;10.50;1.00;;;;;;5018461;28;20460;-84
2023/01/16 13:31:46;;;;;;;5.77;1.60;;;10.50;1.00;;;;;;4998880;28;20585;-81
2023/01/16 13:34:37;;;;;;;7.20;1.37;;;10.40;1.00;;;;;;4984527;28;20427;-81
2023/01/16 13:37:53;;;;;;;;;;;;;;;;;;;;;
2023/01/16 13:40:55;;;;;;;5.83;1.37;;;9.90;1.00;;;;;;4995121;28;49289;-82
2023/01/16 13:46:34;;;;;;;8.93;1.53;;;9.40;1.00;;;;;;5010890;28;20465;-82
2023/01/16 13:49:05;;;;;;;7.03;1.37;;;9.40;1.00;;;;;;4998250;28;21185;-82
2023/01/16 13:52:09;;;;;;;;;;;;;;;;;;;;;
2023/01/16 13:54:46;;;;;;;7.10;1.67;;;9.20;1.00;;;;;;4967221;28;38332;-82
2023/01/16 14:00:28;;;;;;;9.77;1.50;;;8.90;1.00;;;;;;4999066;28;21121;-82
2023/01/16 14:03:36;;;;;;;6.00;1.40;;;8.90;1.00;;;;;;5012810;28;20425;-82
2023/01/16 14:06:45;;;;;;;5.33;1.23;;;8.70;1.00;;;;;;4987379;28;20500;-82
2023/01/16 14:09:26;;;;;;;5.80;1.67;;;8.60;1.00;;;;;;5009720;28;20477;-84
2023/01/16 14:12:26;;;;;;;6.30;1.37;;;8.50;1.00;;;;;;5001266;28;20462;-82
2023/01/16 14:18:55;;;;;;;9.35;2.33;;;8.20;1.00;;;;;;5002928;28;20227;-82
2023/01/16 14:24:59;;;;;;;5.75;1.40;;;8.00;1.00;;;;;;4955162;28;20245;-82
2023/01/16 14:27:48;;;;;;;6.25;1.65;;;8.00;1.00;;;;;;5021376;28;20248;-82
2023/01/16 14:30:27;;;;;;;6.28;1.90;;;7.90;1.00;;;;;;5019620;28;20716;-81
2023/01/16 14:33:07;;;;;;;6.60;1.73;;;7.80;1.00;;;;;;5009757;28;20620;-83
2023/01/16 14:38:57;;;;;;;6.60;1.80;;;7.60;1.00;;;;;;4961777;28;20285;-82
2023/01/16 14:56:27;;;;;;;6.10;1.38;;;7.10;1.00;;;;;;5003041;28;20227;-82
2023/01/16 14:59:06;;;;;;;6.55;1.23;;;7.10;1.00;;;;;;4988805;28;20236;-82
2023/01/16 15:05:13;;;;;;;6.78;1.75;;;7.10;1.00;;;;;;5008954;28;20292;-82
2023/01/16 15:07:56;;;;;;;8.02;1.50;;;6.90;1.00;;;;;;4984933;28;20250;-83
2023/01/16 15:10:57;;;;;;;9.88;2.05;;;6.90;1.00;;;;;;4999802;28;20244;-83
2023/01/16 15:22:18;;;;;;;7.63;1.52;;;6.50;1.00;;;;;;5006217;28;20227;-83
2023/01/16 15:25:09;;;;;;;7.97;2.17;;;6.50;1.00;;;;;;5014305;28;20239;-82
2023/01/16 15:27:38;;;;;;;8.13;1.67;;;6.50;1.00;;;;;;5017110;28;20242;-81
2023/01/16 15:30:17;;;;;;;7.75;1.70;;;6.40;1.00;;;;;;5005802;28;20246;-81
2023/01/16 15:35:41;;;;;;;9.73;2.28;;;6.40;1.00;;;;;;5006011;28;20227;-82
2023/01/16 15:38:15;;;;;;;7.80;1.55;;;6.30;1.00;;;;;;5007056;28;21065;-83
2023/01/16 15:40:56;;;;;;;5.85;1.35;;;6.30;1.00;;;;;;4986967;28;20993;-81
2023/01/16 15:46:34;;;;;;;7.13;2.13;;;6.30;1.00;;;;;;5016192;28;20459;-82
2023/01/16 15:49:19;;;;;;;6.38;1.67;;;6.20;1.00;;;;;;5021193;28;20258;-82
2023/01/16 15:51:57;;;;;;;6.43;1.63;;;6.20;1.00;;;;;;4988054;28;20317;-83
2023/01/16 15:54:45;;;;;;;8.90;1.88;;;6.20;1.00;;;;;;4999088;28;20247;-81
2023/01/16 15:57:18;;;;;;;6.43;2.13;;;6.20;1.00;;;;;;4999451;28;20246;-83
2023/01/16 15:59:56;;;;;;;7.88;1.83;;;6.10;1.00;;;;;;5014126;28;20256;-84
2023/01/16 16:02:39;;;;;;;;;;;;;;;;;;;;;
2023/01/16 16:05:13;;;;;;;7.07;2.15;;;6.10;1.00;;;;;;4967148;28;50769;-83
2023/01/16 16:07:46;;;;;;;7.13;1.85;;;6.10;1.00;;;;;;4993324;28;20248;-81
2023/01/16 16:13:07;;;;;;;7.00;2.58;;;6.10;1.00;;;;;;5003966;28;20238;-83
2023/01/16 16:18:23;;;;;;;6.32;1.90;;;6.00;1.00;;;;;;5021271;28;20282;-83
2023/01/16 16:21:06;;;;;;;6.35;2.05;;;5.90;1.00;;;;;;4990837;28;20223;-81
2023/01/16 16:23:35;;;;;;;9.05;2.22;;;5.90;1.00;;;;;;5012738;28;20370;-82
2023/01/16 16:26:07;;;;;;;6.40;2.17;;;5.90;1.00;;;;;;5023108;28;20249;-81
2023/01/16 16:28:41;;;;;;;10.82;2.33;;;5.80;1.00;;;;;;5007520;28;20231;-83
2023/01/16 16:31:26;;;;;;;7.80;1.92;;;5.80;1.00;;;;;;5012523;28;20238;-82
2023/01/16 16:34:13;;;;;;;7.22;2.10;;;5.80;1.00;;;;;;5010377;28;20266;-83
2023/01/16 16:36:51;;;;;;;9.35;2.60;;;5.80;1.00;;;;;;5028002;28;20337;-82
2023/01/16 16:39:46;;;;;;;6.50;1.92;;;5.70;1.00;;;;;;4997351;28;20238;-82
2023/01/16 16:42:54;;;;;;;9.35;2.40;;;5.70;1.00;;;;;;4986755;28;20234;-83
2023/01/16 16:45:33;;;;;;;7.25;2.20;;;5.70;1.00;;;;;;5012584;28;20243;-84
2023/01/16 16:48:34;;;;;;;12.75;2.67;;;5.60;1.00;;;;;;5023425;28;20246;-86